ACA1051 KSAN-CYVR
Flight info
| Callsign | ACA1051 |
|---|---|
| Flight time | N/A |
| Altitude | 36000 |
| Route | PADRZ2 IKAYE DCT TESEA DCT SCTRR DCT SNS J126 SAC DCT LMT DCT SEA DCT PAE GRIZZ9 |
| Aircraft | B738/M-SDE2E3FGHIRWXY/LB1 |
Departure
| Time | 2026-04-30 21:43 |
|---|---|
| Airport | San Diego International Airport (KSAN) |
Arrival
| Time | N/A |
|---|---|
| Airport | Vancouver International Airport (CYVR) |
| Time | Latitude | Longitude | Altitude | Speed | Heading |
|---|---|---|---|---|---|
| 2026-04-30 21:09 | 32.73347 | -117.20053 | 22 ft | 0 kts | 261° |
| 2026-04-30 21:33 | 32.73347 | -117.20050 | 22 ft | 2 kts | 262° |
| 2026-04-30 21:33 | 32.73349 | -117.20020 | 23 ft | 4 kts | 278° |
| 2026-04-30 21:34 | 32.73340 | -117.19993 | 22 ft | 4 kts | 323° |
| 2026-04-30 21:34 | 32.73327 | -117.19988 | 25 ft | 0 kts | 8° |
| 2026-04-30 21:37 | 32.73342 | -117.19985 | 23 ft | 8 kts | 8° |
| 2026-04-30 21:37 | 32.73399 | -117.19973 | 23 ft | 8 kts | 11° |
| 2026-04-30 21:37 | 32.73476 | -117.19919 | 22 ft | 17 kts | 73° |
| 2026-04-30 21:37 | 32.73452 | -117.19788 | 22 ft | 16 kts | 106° |
| 2026-04-30 21:38 | 32.73422 | -117.19663 | 22 ft | 15 kts | 105° |
| 2026-04-30 21:38 | 32.73394 | -117.19543 | 22 ft | 15 kts | 105° |
| 2026-04-30 21:38 | 32.73359 | -117.19403 | 24 ft | 21 kts | 107° |
| 2026-04-30 21:38 | 32.73316 | -117.19233 | 24 ft | 21 kts | 106° |
| 2026-04-30 21:39 | 32.73277 | -117.19065 | 22 ft | 21 kts | 105° |
| 2026-04-30 21:39 | 32.73239 | -117.18902 | 23 ft | 20 kts | 105° |
| 2026-04-30 21:39 | 32.73198 | -117.18745 | 23 ft | 20 kts | 107° |
| 2026-04-30 21:39 | 32.73161 | -117.18593 | 22 ft | 19 kts | 106° |
| 2026-04-30 21:40 | 32.73127 | -117.18445 | 23 ft | 18 kts | 105° |
| 2026-04-30 21:40 | 32.73093 | -117.18302 | 21 ft | 18 kts | 106° |
| 2026-04-30 21:40 | 32.73059 | -117.18165 | 21 ft | 17 kts | 106° |
| 2026-04-30 21:40 | 32.73026 | -117.18032 | 21 ft | 16 kts | 106° |
| 2026-04-30 21:41 | 32.72995 | -117.17905 | 22 ft | 16 kts | 106° |
| 2026-04-30 21:41 | 32.72964 | -117.17783 | 22 ft | 15 kts | 108° |
| 2026-04-30 21:41 | 32.72958 | -117.17664 | 21 ft | 15 kts | 75° |
| 2026-04-30 21:41 | 32.73027 | -117.17623 | 23 ft | 14 kts | 311° |
| 2026-04-30 21:42 | 32.73042 | -117.17672 | 21 ft | 0 kts | 285° |
| 2026-04-30 21:42 | 32.73052 | -117.17714 | 21 ft | 31 kts | 285° |
| 2026-04-30 21:42 | 32.73201 | -117.18328 | 22 ft | 121 kts | 286° |
| 2026-04-30 21:42 | 32.73487 | -117.19509 | 431 ft | 164 kts | 286° |
| 2026-04-30 21:43 | 32.73813 | -117.20842 | 1654 ft | 161 kts | 285° |
| 2026-04-30 21:43 | 32.74103 | -117.21665 | 2387 ft | 172 kts | 300° |
| 2026-04-30 21:43 | 32.75117 | -117.23392 | 2957 ft | 214 kts | 304° |
| 2026-04-30 21:43 | 32.76008 | -117.24941 | 3341 ft | 234 kts | 304° |
| 2026-04-30 21:44 | 32.76971 | -117.26626 | 3682 ft | 257 kts | 304° |
| 2026-04-30 21:44 | 32.77998 | -117.28427 | 4422 ft | 267 kts | 305° |
| 2026-04-30 21:44 | 32.78703 | -117.29664 | 5021 ft | 270 kts | 306° |
| 2026-04-30 21:44 | 32.79006 | -117.30196 | 5264 ft | 271 kts | 306° |
| 2026-04-30 21:45 | 32.80079 | -117.32060 | 6129 ft | 275 kts | 308° |
| 2026-04-30 21:45 | 32.81239 | -117.33901 | 6925 ft | 281 kts | 309° |
| 2026-04-30 21:45 | 32.82446 | -117.35750 | 7719 ft | 285 kts | 310° |
| 2026-04-30 21:45 | 32.83670 | -117.37622 | 8562 ft | 288 kts | 310° |
| 2026-04-30 21:46 | 32.84907 | -117.39523 | 9388 ft | 293 kts | 310° |
| 2026-04-30 21:46 | 32.86158 | -117.41452 | 10174 ft | 297 kts | 310° |
| 2026-04-30 21:46 | 32.87084 | -117.42884 | 10491 ft | 311 kts | 310° |
| 2026-04-30 21:46 | 32.88453 | -117.45002 | 10685 ft | 336 kts | 309° |
| 2026-04-30 21:47 | 32.89921 | -117.47279 | 10868 ft | 359 kts | 309° |
| 2026-04-30 21:47 | 32.91484 | -117.49710 | 11089 ft | 378 kts | 309° |
| 2026-04-30 21:47 | 32.93099 | -117.52226 | 11625 ft | 385 kts | 309° |
| 2026-04-30 21:47 | 32.94728 | -117.54767 | 12377 ft | 386 kts | 309° |
| 2026-04-30 21:48 | 32.95829 | -117.56484 | 12908 ft | 387 kts | 309° |
| 2026-04-30 21:48 | 32.96933 | -117.58207 | 13438 ft | 387 kts | 309° |
| 2026-04-30 21:48 | 32.98381 | -117.60466 | 14042 ft | 389 kts | 309° |
| 2026-04-30 21:48 | 33.00021 | -117.63027 | 14627 ft | 392 kts | 309° |
| 2026-04-30 21:49 | 33.01138 | -117.64772 | 15022 ft | 394 kts | 309° |
| 2026-04-30 21:49 | 33.02145 | -117.66346 | 15369 ft | 397 kts | 309° |
| 2026-04-30 21:49 | 33.03825 | -117.68972 | 15940 ft | 400 kts | 309° |
| 2026-04-30 21:50 | 33.05515 | -117.71616 | 16518 ft | 403 kts | 309° |
| 2026-04-30 21:50 | 33.07343 | -117.74151 | 17041 ft | 404 kts | 319° |
| 2026-04-30 21:50 | 33.09484 | -117.76330 | 17592 ft | 405 kts | 323° |
| 2026-04-30 21:50 | 33.11653 | -117.78423 | 18116 ft | 408 kts | 323° |
| 2026-04-30 21:51 | 33.13856 | -117.80578 | 18583 ft | 411 kts | 323° |
| 2026-04-30 21:51 | 33.16049 | -117.82777 | 19057 ft | 413 kts | 322° |
| 2026-04-30 21:51 | 33.16866 | -117.83607 | 19222 ft | 414 kts | 322° |
| 2026-04-30 21:51 | 33.19063 | -117.85848 | 19679 ft | 416 kts | 322° |
| 2026-04-30 21:52 | 33.21213 | -117.88183 | 20121 ft | 420 kts | 319° |
| 2026-04-30 21:52 | 33.23303 | -117.90637 | 20574 ft | 423 kts | 318° |
| 2026-04-30 21:52 | 33.25304 | -117.93060 | 21002 ft | 425 kts | 317° |
| 2026-04-30 21:52 | 33.27382 | -117.95595 | 21433 ft | 427 kts | 317° |
| 2026-04-30 21:53 | 33.29469 | -117.98135 | 21852 ft | 430 kts | 317° |
| 2026-04-30 21:53 | 33.31574 | -118.00683 | 22260 ft | 432 kts | 317° |
| 2026-04-30 21:53 | 33.33697 | -118.03239 | 22657 ft | 434 kts | 317° |
| 2026-04-30 21:53 | 33.35833 | -118.05803 | 23045 ft | 437 kts | 317° |
| 2026-04-30 21:54 | 33.37985 | -118.08383 | 23423 ft | 439 kts | 317° |
| 2026-04-30 21:54 | 33.40146 | -118.10972 | 23750 ft | 441 kts | 317° |
| 2026-04-30 21:54 | 33.42348 | -118.13611 | 24090 ft | 442 kts | 317° |
| 2026-04-30 21:54 | 33.44521 | -118.16217 | 24438 ft | 443 kts | 317° |
| 2026-04-30 21:55 | 33.46703 | -118.18836 | 24769 ft | 444 kts | 317° |
| 2026-04-30 21:55 | 33.48887 | -118.21460 | 25089 ft | 445 kts | 317° |
| 2026-04-30 21:55 | 33.50886 | -118.23863 | 25380 ft | 446 kts | 317° |
| 2026-04-30 21:55 | 33.53081 | -118.26505 | 25685 ft | 448 kts | 317° |
| 2026-04-30 21:56 | 33.55282 | -118.29155 | 25982 ft | 449 kts | 317° |
| 2026-04-30 21:56 | 33.57489 | -118.31815 | 26263 ft | 450 kts | 317° |
| 2026-04-30 21:56 | 33.59699 | -118.34479 | 26529 ft | 452 kts | 317° |
| 2026-04-30 21:56 | 33.61919 | -118.37159 | 26789 ft | 453 kts | 317° |
| 2026-04-30 21:57 | 33.64144 | -118.39846 | 27050 ft | 454 kts | 316° |
| 2026-04-30 21:57 | 33.66374 | -118.42543 | 27312 ft | 456 kts | 316° |
| 2026-04-30 21:57 | 33.68600 | -118.45236 | 27659 ft | 454 kts | 316° |
| 2026-04-30 21:57 | 33.70823 | -118.47928 | 28086 ft | 452 kts | 316° |
| 2026-04-30 21:58 | 33.73030 | -118.50603 | 28533 ft | 449 kts | 316° |
| 2026-04-30 21:58 | 33.75220 | -118.53259 | 28934 ft | 448 kts | 316° |
| 2026-04-30 21:58 | 33.77413 | -118.55920 | 29305 ft | 447 kts | 316° |
| 2026-04-30 21:58 | 33.79599 | -118.58574 | 29709 ft | 446 kts | 316° |
| 2026-04-30 21:59 | 33.81776 | -118.61221 | 30121 ft | 444 kts | 316° |
| 2026-04-30 21:59 | 33.83938 | -118.63851 | 30480 ft | 442 kts | 316° |
| 2026-04-30 21:59 | 33.86094 | -118.66475 | 30822 ft | 441 kts | 316° |
| 2026-04-30 22:00 | 33.90390 | -118.71710 | 31511 ft | 438 kts | 316° |
| 2026-04-30 22:00 | 33.94650 | -118.76910 | 32207 ft | 434 kts | 316° |
| 2026-04-30 22:00 | 33.96768 | -118.79498 | 32526 ft | 433 kts | 315° |
| 2026-04-30 22:01 | 33.98905 | -118.82112 | 32863 ft | 432 kts | 315° |
| 2026-04-30 22:01 | 34.01012 | -118.84689 | 33215 ft | 430 kts | 315° |
| 2026-04-30 22:01 | 34.03109 | -118.87258 | 33553 ft | 429 kts | 315° |
| 2026-04-30 22:01 | 34.05196 | -118.89815 | 33860 ft | 428 kts | 315° |
| 2026-04-30 22:02 | 34.07275 | -118.92365 | 34111 ft | 427 kts | 315° |
| 2026-04-30 22:02 | 34.07806 | -118.93016 | 34182 ft | 427 kts | 315° |
| 2026-04-30 22:02 | 34.10158 | -118.95906 | 34473 ft | 425 kts | 315° |
| 2026-04-30 22:03 | 34.12230 | -118.98452 | 34702 ft | 425 kts | 315° |
| 2026-04-30 22:03 | 34.14301 | -119.00998 | 34908 ft | 426 kts | 315° |
| 2026-04-30 22:03 | 34.16388 | -119.03527 | 35110 ft | 425 kts | 315° |
| 2026-04-30 22:03 | 34.18494 | -119.06036 | 35353 ft | 425 kts | 315° |
| 2026-04-30 22:04 | 34.20600 | -119.08531 | 35561 ft | 424 kts | 315° |
| 2026-04-30 22:04 | 34.22707 | -119.11028 | 35777 ft | 424 kts | 315° |
| 2026-04-30 22:04 | 34.26930 | -119.16045 | 35943 ft | 427 kts | 315° |
| 2026-04-30 22:05 | 34.29072 | -119.18599 | 35942 ft | 426 kts | 315° |
| 2026-04-30 22:05 | 34.33273 | -119.23621 | 35950 ft | 423 kts | 315° |
| 2026-04-30 22:06 | 34.37444 | -119.28616 | 35942 ft | 421 kts | 315° |
| 2026-04-30 22:06 | 34.43667 | -119.36084 | 35948 ft | 420 kts | 315° |
| 2026-04-30 22:07 | 34.47810 | -119.41064 | 35961 ft | 419 kts | 315° |
| 2026-04-30 22:07 | 34.51956 | -119.46055 | 35949 ft | 421 kts | 314° |
| 2026-04-30 22:08 | 34.56121 | -119.51077 | 35955 ft | 423 kts | 314° |
| 2026-04-30 22:08 | 34.60309 | -119.56134 | 35943 ft | 426 kts | 314° |
| 2026-04-30 22:09 | 34.64519 | -119.61225 | 35946 ft | 428 kts | 314° |
| 2026-04-30 22:09 | 34.68742 | -119.66339 | 35941 ft | 429 kts | 314° |
| 2026-04-30 22:10 | 34.72969 | -119.71466 | 35957 ft | 430 kts | 314° |
| 2026-04-30 22:10 | 34.77202 | -119.76608 | 35947 ft | 430 kts | 314° |
| 2026-04-30 22:11 | 34.83565 | -119.84354 | 35943 ft | 429 kts | 314° |
| 2026-04-30 22:12 | 34.87775 | -119.89487 | 35951 ft | 428 kts | 314° |
| 2026-04-30 22:12 | 34.91971 | -119.94611 | 35953 ft | 426 kts | 314° |
| 2026-04-30 22:13 | 34.96154 | -119.99731 | 35963 ft | 427 kts | 314° |
| 2026-04-30 22:13 | 35.00347 | -120.04868 | 35952 ft | 427 kts | 314° |
| 2026-04-30 22:14 | 35.04537 | -120.10009 | 35970 ft | 427 kts | 314° |
| 2026-04-30 22:14 | 35.08731 | -120.15164 | 35969 ft | 428 kts | 314° |
| 2026-04-30 22:15 | 35.12931 | -120.20335 | 35969 ft | 429 kts | 314° |
| 2026-04-30 22:15 | 35.17154 | -120.25495 | 35969 ft | 430 kts | 317° |
| 2026-04-30 22:16 | 35.20871 | -120.29062 | 35976 ft | 431 kts | 322° |
| 2026-04-30 22:17 | 35.30513 | -120.37782 | 35980 ft | 432 kts | 322° |
| 2026-04-30 22:17 | 35.37729 | -120.44401 | 35974 ft | 432 kts | 322° |
| 2026-04-30 22:18 | 35.44946 | -120.51045 | 35978 ft | 432 kts | 322° |
| 2026-04-30 22:19 | 35.51873 | -120.57433 | 35995 ft | 432 kts | 322° |
| 2026-04-30 22:20 | 35.59190 | -120.63976 | 36000 ft | 432 kts | 323° |
| 2026-04-30 22:20 | 35.66520 | -120.70416 | 35999 ft | 431 kts | 323° |
| 2026-04-30 22:21 | 35.70957 | -120.74340 | 35998 ft | 431 kts | 323° |
| 2026-04-30 22:21 | 35.75824 | -120.78658 | 35997 ft | 431 kts | 323° |
| 2026-04-30 22:22 | 35.80678 | -120.82973 | 35989 ft | 431 kts | 323° |
| 2026-04-30 22:22 | 35.85538 | -120.87300 | 35987 ft | 431 kts | 323° |
| 2026-04-30 22:23 | 35.90402 | -120.91637 | 35984 ft | 431 kts | 323° |
| 2026-04-30 22:23 | 35.95204 | -120.95926 | 35988 ft | 431 kts | 323° |
| 2026-04-30 22:24 | 36.00069 | -121.00278 | 35984 ft | 432 kts | 323° |
| 2026-04-30 22:24 | 36.04935 | -121.04637 | 35983 ft | 432 kts | 323° |
| 2026-04-30 22:25 | 36.09789 | -121.08992 | 35988 ft | 433 kts | 323° |
| 2026-04-30 22:25 | 36.14693 | -121.13399 | 35984 ft | 433 kts | 323° |
| 2026-04-30 22:26 | 36.22002 | -121.19980 | 35996 ft | 433 kts | 323° |
| 2026-04-30 22:27 | 36.26866 | -121.24368 | 36004 ft | 433 kts | 323° |
| 2026-04-30 22:27 | 36.34021 | -121.30837 | 36008 ft | 433 kts | 323° |
| 2026-04-30 22:28 | 36.41328 | -121.37458 | 36022 ft | 433 kts | 323° |
| 2026-04-30 22:29 | 36.50885 | -121.46142 | 36035 ft | 433 kts | 323° |
| 2026-04-30 22:31 | 36.68719 | -121.59908 | 36039 ft | 437 kts | 347° |
| 2026-04-30 22:32 | 36.77877 | -121.60132 | 36043 ft | 441 kts | 359° |
| 2026-04-30 22:32 | 36.84014 | -121.59865 | 36019 ft | 441 kts | 359° |
| 2026-04-30 22:33 | 36.99357 | -121.59374 | 36032 ft | 441 kts | 359° |
| 2026-04-30 22:35 | 37.14726 | -121.58943 | 36026 ft | 440 kts | 359° |
| 2026-04-30 22:36 | 37.30029 | -121.58508 | 36012 ft | 439 kts | 359° |
| 2026-04-30 22:37 | 37.42215 | -121.58160 | 36003 ft | 438 kts | 359° |
| 2026-04-30 22:38 | 37.54386 | -121.57812 | 35957 ft | 437 kts | 359° |
| 2026-04-30 22:39 | 37.63502 | -121.57551 | 35956 ft | 437 kts | 359° |
| 2026-04-30 22:40 | 37.81696 | -121.57027 | 35953 ft | 435 kts | 359° |
| 2026-04-30 22:41 | 37.96846 | -121.56588 | 35962 ft | 434 kts | 359° |
| 2026-04-30 22:43 | 38.14774 | -121.56067 | 35956 ft | 432 kts | 359° |
| 2026-04-30 22:44 | 38.26781 | -121.55716 | 35960 ft | 431 kts | 359° |
| 2026-04-30 22:45 | 38.44738 | -121.55201 | 35963 ft | 429 kts | 358° |
| 2026-04-30 22:47 | 38.61644 | -121.55956 | 35957 ft | 427 kts | 355° |
| 2026-04-30 22:48 | 38.73451 | -121.56512 | 35956 ft | 426 kts | 355° |
| 2026-04-30 22:49 | 38.91213 | -121.57318 | 35941 ft | 425 kts | 355° |
| 2026-04-30 22:51 | 39.08943 | -121.58127 | 35955 ft | 424 kts | 355° |
| 2026-04-30 22:52 | 39.17789 | -121.58532 | 35957 ft | 424 kts | 355° |
| 2026-04-30 22:53 | 39.29563 | -121.59074 | 35951 ft | 423 kts | 355° |
| 2026-04-30 22:53 | 39.38416 | -121.59481 | 35963 ft | 422 kts | 355° |
| 2026-04-30 22:55 | 39.53081 | -121.60160 | 35966 ft | 421 kts | 355° |
| 2026-04-30 22:56 | 39.64787 | -121.60703 | 35963 ft | 421 kts | 355° |
| 2026-04-30 22:57 | 39.79395 | -121.61384 | 35976 ft | 420 kts | 355° |
| 2026-04-30 22:58 | 39.91069 | -121.61930 | 35978 ft | 419 kts | 355° |
| 2026-04-30 22:59 | 40.08526 | -121.62750 | 35985 ft | 417 kts | 355° |